createdAt,value
2023-01-18T00:00:40.769Z,51.3
2023-01-18T00:01:42.229Z,51.6
2023-01-18T00:02:43.664Z,51.5
2023-01-18T00:03:45.063Z,51.5
2023-01-18T00:04:46.550Z,51.5
2023-01-18T00:05:47.966Z,51.4
2023-01-18T00:06:49.369Z,51.3
2023-01-18T00:07:50.789Z,51.4
2023-01-18T00:08:52.203Z,51.6
2023-01-18T00:09:53.615Z,51.4
2023-01-18T00:10:55.040Z,51.5
2023-01-18T00:11:56.442Z,51.4
2023-01-18T00:12:58.505Z,51.5
2023-01-18T00:14:00.092Z,51.7
2023-01-18T00:15:01.706Z,51.6
2023-01-18T00:16:03.207Z,51.7
2023-01-18T00:17:04.617Z,51.6
2023-01-18T00:18:06.023Z,51.5
2023-01-18T00:19:07.410Z,51.2
2023-01-18T00:20:08.806Z,51.2
2023-01-18T00:21:10.563Z,51.2
2023-01-18T00:22:11.962Z,51.3
2023-01-18T00:23:13.356Z,51.6
2023-01-18T00:24:14.759Z,51.2
2023-01-18T00:25:16.260Z,51.3
2023-01-18T00:26:17.644Z,51.2
2023-01-18T00:27:19.059Z,51.8
2023-01-18T00:28:20.460Z,51.6
2023-01-18T00:29:21.880Z,51.5
2023-01-18T00:30:23.341Z,51.7
2023-01-18T00:31:24.914Z,51.7
2023-01-18T00:32:26.368Z,51.5
2023-01-18T00:33:27.788Z,51.2
2023-01-18T00:34:29.200Z,51.3
2023-01-18T00:35:30.622Z,51.6
2023-01-18T00:36:32.057Z,51.4
2023-01-18T00:37:33.471Z,51.2
2023-01-18T00:38:34.861Z,51.2
2023-01-18T00:39:36.297Z,51.1
2023-01-18T00:40:37.689Z,51.2
2023-01-18T00:41:39.097Z,51.4
2023-01-18T00:42:40.503Z,51.4
2023-01-18T00:43:41.931Z,51.3
2023-01-18T00:44:43.365Z,50.9
2023-01-18T00:45:44.984Z,50.8
2023-01-18T00:46:46.417Z,50.6
2023-01-18T00:47:47.874Z,51.1
2023-01-18T00:48:49.283Z,51
2023-01-18T00:49:50.705Z,50.6
2023-01-18T00:50:52.128Z,50.7
2023-01-18T00:51:53.542Z,50.5
2023-01-18T00:52:55.642Z,50.9
2023-01-18T00:53:57.198Z,50.8
2023-01-18T00:54:58.610Z,51.1
2023-01-18T00:56:00.015Z,50.8
2023-01-18T00:57:01.418Z,50.5
2023-01-18T00:58:02.830Z,50.8
2023-01-18T00:59:04.234Z,50.6
2023-01-18T01:00:05.635Z,50.8
2023-01-18T01:01:07.401Z,50.8
2023-01-18T01:02:09.349Z,50.6
2023-01-18T01:03:10.860Z,50.8
2023-01-18T01:04:12.247Z,50.3
2023-01-18T01:05:13.660Z,50.6
2023-01-18T01:06:15.063Z,50.8
2023-01-18T01:07:16.500Z,50.6
2023-01-18T01:08:17.918Z,50.6
2023-01-18T01:09:19.360Z,50.5
2023-01-18T01:10:20.768Z,50.7
2023-01-18T01:11:22.180Z,50.2
2023-01-18T01:12:23.705Z,50.4
2023-01-18T01:13:25.106Z,50.8
2023-01-18T01:14:26.489Z,50.5
2023-01-18T01:15:27.881Z,50.2
2023-01-18T01:16:29.460Z,50.4
2023-01-18T01:17:30.910Z,50.9
2023-01-18T01:18:32.323Z,50.6
2023-01-18T01:19:33.693Z,50.8
2023-01-18T01:20:35.077Z,50.7
2023-01-18T01:21:36.485Z,50.6
2023-01-18T01:22:38.013Z,50.2
2023-01-18T01:23:39.431Z,50.4
2023-01-18T01:24:40.848Z,50.1
2023-01-18T01:25:42.232Z,50.5
2023-01-18T01:26:43.645Z,50.3
2023-01-18T01:27:45.087Z,50.4
2023-01-18T01:28:46.510Z,50.2
2023-01-18T01:29:47.965Z,50.5
2023-01-18T01:30:49.480Z,50.5
2023-01-18T01:31:50.944Z,50.6
2023-01-18T01:32:52.344Z,50.7
2023-01-18T01:33:53.749Z,50.7
2023-01-18T01:34:55.142Z,50.5
2023-01-18T01:35:56.543Z,50.5
2023-01-18T01:36:57.972Z,50.7
2023-01-18T01:37:59.369Z,50.7
2023-01-18T01:39:00.775Z,50.6
2023-01-18T01:40:02.186Z,50.1
2023-01-18T01:41:03.589Z,50.2
2023-01-18T01:42:05.023Z,50.2
2023-01-18T01:43:06.445Z,50.3
2023-01-18T01:44:07.863Z,50.1
2023-01-18T01:45:09.271Z,50
2023-01-18T01:46:10.915Z,50
2023-01-18T01:47:12.462Z,49.8
2023-01-18T01:48:13.849Z,50.3
2023-01-18T01:49:15.263Z,50.3
2023-01-18T01:50:16.636Z,50.2
2023-01-18T01:51:18.018Z,50.3
2023-01-18T01:52:19.455Z,50.3
2023-01-18T01:53:20.860Z,50.4
2023-01-18T01:54:22.310Z,50
2023-01-18T01:55:23.682Z,50.3
2023-01-18T01:56:25.095Z,50.3
2023-01-18T01:57:26.492Z,50.4
2023-01-18T01:58:27.887Z,50.3
2023-01-18T01:59:29.398Z,49.8
2023-01-18T02:00:30.779Z,50
2023-01-18T02:01:32.377Z,50.4
2023-01-18T02:02:34.239Z,50.3
2023-01-18T02:03:35.735Z,50.4
2023-01-18T02:04:37.118Z,50.3
2023-01-18T02:05:38.521Z,50.1
2023-01-18T02:06:39.976Z,50.1
2023-01-18T02:07:41.386Z,50.3
2023-01-18T02:08:42.790Z,50.2
2023-01-18T02:09:44.194Z,50.1
2023-01-18T02:10:45.651Z,50.2
2023-01-18T02:11:47.035Z,50.3
2023-01-18T02:12:48.430Z,50.5
2023-01-18T02:13:49.817Z,50.3
2023-01-18T02:14:51.245Z,50.4
2023-01-18T02:15:52.793Z,50.4
2023-01-18T02:16:54.302Z,50.4
2023-01-18T02:17:55.784Z,50.1
2023-01-18T02:18:57.185Z,50.4
2023-01-18T02:19:58.591Z,50.3
2023-01-18T02:21:00.012Z,50.2
2023-01-18T02:22:01.417Z,50
2023-01-18T02:23:02.935Z,50
2023-01-18T02:24:04.348Z,50.4
2023-01-18T02:25:05.943Z,50.5
2023-01-18T02:26:07.325Z,50.3
2023-01-18T02:27:08.726Z,50.2
2023-01-18T02:28:10.109Z,50
2023-01-18T02:29:11.525Z,50.2
2023-01-18T02:30:12.974Z,50.3
2023-01-18T02:31:14.611Z,50.1
2023-01-18T02:32:16.034Z,50
2023-01-18T02:33:17.503Z,50.1
2023-01-18T02:34:18.947Z,50
2023-01-18T02:35:20.351Z,50
2023-01-18T02:36:21.755Z,50.1
2023-01-18T02:37:23.168Z,50.2
2023-01-18T02:38:24.587Z,49.8
2023-01-18T02:39:26.014Z,50.3
2023-01-18T02:40:27.418Z,50.2
2023-01-18T02:41:28.814Z,50.3
2023-01-18T02:42:30.205Z,50.3
2023-01-18T02:43:31.626Z,50
2023-01-18T02:44:33.030Z,49.8
2023-01-18T02:45:36.181Z,49.9
2023-01-18T02:46:37.575Z,49.9
2023-01-18T02:47:39.008Z,50.1
2023-01-18T02:48:40.574Z,49.8
2023-01-18T02:49:41.994Z,50.1
2023-01-18T02:50:43.379Z,50.3
2023-01-18T02:51:44.761Z,50.1
2023-01-18T02:52:46.173Z,50.1
2023-01-18T02:53:47.584Z,50.1
2023-01-18T02:54:48.979Z,50.1
2023-01-18T02:55:50.367Z,50
2023-01-18T02:56:51.777Z,49.8
2023-01-18T02:57:53.178Z,49.9
2023-01-18T02:58:54.597Z,50
2023-01-18T02:59:56.025Z,50
2023-01-18T03:00:57.516Z,49.6
2023-01-18T03:01:59.147Z,49.6
2023-01-18T03:03:01.500Z,49.1
2023-01-18T03:04:03.213Z,49.5
2023-01-18T03:05:04.620Z,50
2023-01-18T03:06:06.153Z,49.8
2023-01-18T03:07:07.566Z,49.9
2023-01-18T03:08:08.987Z,49.9
2023-01-18T03:09:10.391Z,49.9
2023-01-18T03:10:11.823Z,49.6
2023-01-18T03:11:13.238Z,50.2
2023-01-18T03:12:14.652Z,49.8
2023-01-18T03:13:16.084Z,49.7
2023-01-18T03:14:17.479Z,49.6
2023-01-18T03:15:18.871Z,49.7
2023-01-18T03:16:20.267Z,49.4
2023-01-18T03:17:21.718Z,49.8
2023-01-18T03:18:23.122Z,50.6
2023-01-18T03:19:24.576Z,50.1
2023-01-18T03:20:26.085Z,50.1
2023-01-18T03:21:27.499Z,50.1
2023-01-18T03:22:28.907Z,50.4
2023-01-18T03:23:30.464Z,49.5
2023-01-18T03:24:31.878Z,49.6
2023-01-18T03:25:33.285Z,49.6
2023-01-18T03:26:34.799Z,49.8
2023-01-18T03:27:36.357Z,49.7
2023-01-18T03:28:37.808Z,49.8
2023-01-18T03:29:39.239Z,49.6
2023-01-18T03:30:40.850Z,49.9
2023-01-18T03:31:42.362Z,49.9
2023-01-18T03:32:43.792Z,49.7
2023-01-18T03:33:45.244Z,49.8
2023-01-18T03:34:46.783Z,49.7
2023-01-18T03:35:48.199Z,49.6
2023-01-18T03:36:49.575Z,49.6
2023-01-18T03:37:50.971Z,49.7
2023-01-18T03:38:52.372Z,49.7
2023-01-18T03:39:53.818Z,49.6
2023-01-18T03:40:55.260Z,49.6
2023-01-18T03:41:56.660Z,49.8
2023-01-18T03:42:58.946Z,49.2
2023-01-18T03:44:00.547Z,49.3
2023-01-18T03:45:01.971Z,49.6
2023-01-18T03:46:03.435Z,49.5
2023-01-18T03:47:04.877Z,49.6
2023-01-18T03:48:06.292Z,49.6
2023-01-18T03:49:07.687Z,49.7
2023-01-18T03:50:09.138Z,49.1
2023-01-18T03:51:10.569Z,49.1
2023-01-18T03:52:11.993Z,49
2023-01-18T03:53:13.387Z,49.3
2023-01-18T03:54:14.827Z,49.4
2023-01-18T03:55:16.353Z,49.4
2023-01-18T03:56:17.753Z,49.4
2023-01-18T03:57:19.138Z,49.4
2023-01-18T03:58:20.519Z,49.3
2023-01-18T03:59:21.959Z,49.3
2023-01-18T04:00:23.362Z,49.5
2023-01-18T04:01:25.143Z,49.5
2023-01-18T04:02:26.810Z,49.4
2023-01-18T04:03:28.195Z,49.7
2023-01-18T04:04:29.597Z,49.5
2023-01-18T04:05:31.058Z,49.4
2023-01-18T04:06:32.443Z,49.2
2023-01-18T04:07:33.856Z,49.3
2023-01-18T04:08:35.279Z,49.5
2023-01-18T04:09:36.665Z,49.6
2023-01-18T04:10:38.068Z,49.5
2023-01-18T04:11:39.479Z,49.3
2023-01-18T04:12:40.869Z,49.3
2023-01-18T04:13:42.277Z,49.6
2023-01-18T04:14:43.680Z,49.4
2023-01-18T04:15:45.341Z,49.3
2023-01-18T04:16:46.777Z,49.3
2023-01-18T04:17:48.171Z,49.4
2023-01-18T04:18:49.571Z,49.4
2023-01-18T04:19:50.958Z,49.4
2023-01-18T04:20:52.401Z,49.7
2023-01-18T04:21:53.799Z,49.3
2023-01-18T04:22:55.291Z,49.3
2023-01-18T04:23:56.726Z,49
2023-01-18T04:24:58.112Z,49.4
2023-01-18T04:25:59.515Z,49.3
2023-01-18T04:27:00.938Z,49.5
2023-01-18T04:28:02.358Z,49.5
2023-01-18T04:29:03.784Z,49.7
2023-01-18T04:30:05.197Z,49.5
2023-01-18T04:31:06.659Z,49.5
2023-01-18T04:32:08.074Z,49.4
2023-01-18T04:33:09.463Z,49.7
2023-01-18T04:34:11.040Z,49.8
2023-01-18T04:35:12.432Z,49.5
2023-01-18T04:36:13.896Z,49.6
2023-01-18T04:37:15.317Z,49.7
2023-01-18T04:38:16.753Z,49.9
2023-01-18T04:39:18.152Z,50.2
2023-01-18T04:40:19.548Z,50
2023-01-18T04:41:20.962Z,50.1
2023-01-18T04:42:22.375Z,50.8
2023-01-18T04:43:23.784Z,51
2023-01-18T04:44:25.178Z,51
2023-01-18T04:45:26.604Z,51
2023-01-18T04:46:28.098Z,51.2
2023-01-18T04:47:29.674Z,51.4
2023-01-18T04:48:31.071Z,51.4
2023-01-18T04:49:32.489Z,51.9
2023-01-18T04:50:33.893Z,51.7
2023-01-18T04:51:35.367Z,51.7
2023-01-18T04:52:36.764Z,51.8
2023-01-18T04:53:38.166Z,52
2023-01-18T04:54:39.559Z,48.9
2023-01-18T04:55:40.961Z,45
2023-01-18T04:56:42.338Z,45.5
2023-01-18T04:57:43.792Z,45.6
2023-01-18T04:58:45.211Z,45
2023-01-18T04:59:46.643Z,43.5
2023-01-18T05:00:48.368Z,43.4
2023-01-18T05:01:49.989Z,43.5
2023-01-18T05:02:51.402Z,42.7
2023-01-18T05:03:52.832Z,42.6
2023-01-18T05:04:54.223Z,42.3
2023-01-18T05:05:55.621Z,41.2
2023-01-18T05:06:57.073Z,40.2
2023-01-18T05:07:58.469Z,41.5
2023-01-18T05:08:59.892Z,41.5
2023-01-18T05:10:01.294Z,40.6
2023-01-18T05:11:02.668Z,39.3
2023-01-18T05:12:04.074Z,39
2023-01-18T05:13:05.472Z,39.5
2023-01-18T05:14:06.889Z,38.7
2023-01-18T05:15:08.320Z,38.4
2023-01-18T05:16:09.823Z,38.5
2023-01-18T05:17:11.258Z,38.7
2023-01-18T05:18:12.661Z,38.8
2023-01-18T05:19:14.093Z,37.5
2023-01-18T05:20:15.468Z,37.8
2023-01-18T05:21:16.867Z,37.8
2023-01-18T05:22:18.348Z,37.4
2023-01-18T05:23:19.795Z,37.1
2023-01-18T05:24:21.220Z,37
2023-01-18T05:25:22.637Z,37.2
2023-01-18T05:26:24.024Z,37.1
2023-01-18T05:27:25.420Z,37.7
2023-01-18T05:28:26.858Z,37.2
2023-01-18T05:29:28.279Z,37.5
2023-01-18T05:30:29.690Z,36.8
2023-01-18T05:31:31.310Z,37.4
2023-01-18T05:32:32.752Z,36.9
2023-01-18T05:33:34.176Z,36.9
2023-01-18T05:34:35.592Z,36.3
2023-01-18T05:35:37.046Z,36.1
2023-01-18T05:36:38.474Z,36.5
2023-01-18T05:37:40.073Z,36.5
2023-01-18T05:38:41.722Z,37.1
2023-01-18T05:39:43.104Z,36.5
2023-01-18T05:40:44.537Z,36.5
2023-01-18T05:41:45.935Z,36.5
2023-01-18T05:42:47.346Z,36.2
2023-01-18T05:43:48.787Z,36.4
2023-01-18T05:44:50.440Z,36
2023-01-18T05:45:52.151Z,35.8
2023-01-18T05:46:53.618Z,35.8
2023-01-18T05:47:55.009Z,36
2023-01-18T05:48:56.452Z,36.1
2023-01-18T05:49:57.887Z,35.9
2023-01-18T05:50:59.298Z,36.5
2023-01-18T05:52:00.745Z,36.5
2023-01-18T05:53:02.401Z,36.3
2023-01-18T05:54:03.859Z,36
2023-01-18T05:55:05.269Z,35.7
2023-01-18T05:56:06.708Z,35.6
2023-01-18T05:57:08.107Z,35.9
2023-01-18T05:58:09.508Z,35.7
2023-01-18T05:59:10.946Z,35.6
2023-01-18T06:00:12.364Z,35.7
2023-01-18T06:01:14.046Z,35.8
2023-01-18T06:02:15.671Z,35.5
2023-01-18T06:03:17.066Z,35.8
2023-01-18T06:04:18.500Z,35.5
2023-01-18T06:05:19.890Z,35.4
2023-01-18T06:06:21.297Z,35.5
2023-01-18T06:07:22.695Z,35.7
2023-01-18T06:08:24.144Z,36
2023-01-18T06:09:25.537Z,35.9
2023-01-18T06:10:26.917Z,35.4
2023-01-18T06:11:28.342Z,35.4
2023-01-18T06:12:29.764Z,35.3
2023-01-18T06:13:31.199Z,35.6
2023-01-18T06:14:32.588Z,35.3
2023-01-18T06:15:33.992Z,35.5
2023-01-18T06:16:35.717Z,35.1
2023-01-18T06:17:37.157Z,35.2
2023-01-18T06:18:38.596Z,35.4
2023-01-18T06:19:40.032Z,35.4
2023-01-18T06:20:41.451Z,35.5
2023-01-18T06:21:42.861Z,35.6
2023-01-18T06:22:44.304Z,35
2023-01-18T06:23:45.787Z,35.6
2023-01-18T06:24:47.180Z,35.1
2023-01-18T06:25:48.563Z,35.3
2023-01-18T06:26:49.997Z,35.4
2023-01-18T06:27:51.403Z,35.5
2023-01-18T06:28:52.835Z,35.1
2023-01-18T06:29:54.257Z,35.1
2023-01-18T06:30:55.721Z,35.5
2023-01-18T06:31:57.179Z,35.2
2023-01-18T06:32:59.477Z,35.4
2023-01-18T06:34:01.034Z,35
2023-01-18T06:35:02.677Z,35.3
2023-01-18T06:36:04.135Z,34.9
2023-01-18T06:37:05.555Z,35.1
2023-01-18T06:38:06.987Z,35
2023-01-18T06:39:08.456Z,35.2
2023-01-18T06:40:09.872Z,35.3
2023-01-18T06:41:11.300Z,34.9
2023-01-18T06:42:12.709Z,35.3
2023-01-18T06:43:14.447Z,35.2
2023-01-18T06:44:15.929Z,35.1
2023-01-18T06:45:17.339Z,34.9
2023-01-18T06:46:18.952Z,35.3
2023-01-18T06:47:20.467Z,35.5
2023-01-18T06:48:21.890Z,35.4
2023-01-18T06:49:23.304Z,35
2023-01-18T06:50:24.728Z,35.1
2023-01-18T06:51:26.138Z,35.5
2023-01-18T06:52:27.532Z,34.9
2023-01-18T06:53:28.923Z,34.7
2023-01-18T06:54:30.485Z,35
2023-01-18T06:55:31.899Z,35
2023-01-18T06:56:33.313Z,34.9
2023-01-18T06:57:34.724Z,35.2
2023-01-18T06:58:36.119Z,34.9
2023-01-18T06:59:37.513Z,35
2023-01-18T07:00:38.924Z,34.8
2023-01-18T07:01:40.743Z,34.6
2023-01-18T07:02:42.181Z,34.5
2023-01-18T07:03:43.755Z,34.9
2023-01-18T07:04:45.148Z,34.4
2023-01-18T07:05:46.584Z,34.3
2023-01-18T07:06:47.987Z,34.5
2023-01-18T07:07:49.414Z,34.4
2023-01-18T07:08:50.824Z,34.3
2023-01-18T07:09:52.269Z,34.3
2023-01-18T07:10:55.270Z,34.1
2023-01-18T07:11:56.778Z,34.1
2023-01-18T07:12:58.936Z,34.1
2023-01-18T07:14:00.507Z,34.1
2023-01-18T07:15:22.153Z,33.9
2023-01-18T07:16:24.140Z,33.8
2023-01-18T07:17:25.596Z,33.2
2023-01-18T07:18:26.988Z,32.8
2023-01-18T07:19:28.380Z,32.5
2023-01-18T07:20:29.805Z,32.4
2023-01-18T07:21:31.196Z,32.6
2023-01-18T07:22:32.633Z,32.2
2023-01-18T07:23:34.032Z,32.5
2023-01-18T07:24:35.447Z,32.6
2023-01-18T07:25:36.884Z,32.1
2023-01-18T07:26:38.275Z,31.7
2023-01-18T07:27:39.703Z,31.7
2023-01-18T07:28:41.109Z,31.8
2023-01-18T07:29:42.559Z,31.3
2023-01-18T07:30:44.108Z,31.2
2023-01-18T07:31:45.725Z,31.3
2023-01-18T07:32:47.273Z,31.3
2023-01-18T07:33:48.674Z,32.4
2023-01-18T07:34:50.111Z,32.2
2023-01-18T07:35:51.500Z,32.2
2023-01-18T07:36:53.073Z,32.5
2023-01-18T07:37:54.495Z,32.5
2023-01-18T07:38:55.918Z,32.6
2023-01-18T07:39:57.332Z,32.4
2023-01-18T07:40:58.800Z,32.6
2023-01-18T07:42:00.405Z,32.5
2023-01-18T07:43:02.338Z,32.6
2023-01-18T07:44:03.756Z,32.8
2023-01-18T07:45:05.307Z,32.7
2023-01-18T07:46:06.949Z,32.7
2023-01-18T07:47:08.393Z,32.9
2023-01-18T07:48:09.846Z,33
2023-01-18T07:49:11.304Z,32.6
2023-01-18T07:50:12.733Z,32.7
2023-01-18T07:51:14.125Z,32.8
2023-01-18T07:52:15.509Z,32.8
2023-01-18T07:53:16.901Z,32.9
2023-01-18T07:54:18.298Z,32.6
2023-01-18T07:55:19.692Z,32.6
2023-01-18T07:56:21.349Z,32.7
2023-01-18T07:57:22.797Z,32.7
2023-01-18T07:58:24.359Z,32.7
2023-01-18T07:59:25.760Z,32.8
2023-01-18T08:00:27.225Z,32.6
2023-01-18T08:01:29.074Z,33
2023-01-18T08:02:30.750Z,32.8
2023-01-18T08:03:32.285Z,33
2023-01-18T08:04:33.756Z,32.9
2023-01-18T08:05:35.179Z,32.7
2023-01-18T08:06:36.571Z,32.9
2023-01-18T08:07:38.024Z,33.1
2023-01-18T08:08:39.437Z,32.6
2023-01-18T08:09:40.852Z,32.6
2023-01-18T08:10:42.257Z,32.6
2023-01-18T08:11:43.831Z,32.7
2023-01-18T08:12:45.230Z,32.8
2023-01-18T08:13:46.641Z,32.9
2023-01-18T08:14:48.061Z,32.5
2023-01-18T08:15:49.558Z,32.9
2023-01-18T08:16:50.983Z,33.1
2023-01-18T08:17:52.374Z,33.1
2023-01-18T08:18:53.810Z,33
2023-01-18T08:19:55.211Z,33.9
2023-01-18T08:20:56.625Z,33.2
2023-01-18T08:21:58.037Z,33.7
2023-01-18T08:23:00.451Z,34.1
2023-01-18T08:24:02.009Z,34.1
2023-01-18T08:25:03.448Z,32.9
2023-01-18T08:26:04.878Z,33.3
2023-01-18T08:27:06.413Z,32.9
2023-01-18T08:28:07.814Z,33.5
2023-01-18T08:29:09.218Z,33.3
2023-01-18T08:30:10.621Z,33.7
2023-01-18T08:31:12.324Z,33.2
2023-01-18T08:32:13.848Z,33.5
2023-01-18T08:33:15.271Z,33.5
2023-01-18T08:34:16.674Z,33
2023-01-18T08:35:18.058Z,33.3
2023-01-18T08:36:19.490Z,33.4
2023-01-18T08:37:20.883Z,34
2023-01-18T08:38:22.375Z,33
2023-01-18T08:39:23.774Z,33.2
2023-01-18T08:40:25.260Z,33.5
2023-01-18T08:41:26.646Z,33.4
2023-01-18T08:42:28.132Z,33.7
2023-01-18T08:43:29.540Z,34.4
2023-01-18T08:44:30.954Z,34.4
2023-01-18T08:45:32.337Z,33.6
2023-01-18T08:46:33.993Z,33.2
2023-01-18T08:47:35.465Z,33
2023-01-18T08:48:36.877Z,33.8
2023-01-18T08:49:38.332Z,33
2023-01-18T08:50:39.744Z,33.5
2023-01-18T08:51:41.157Z,33.4
2023-01-18T08:52:42.568Z,33.6
2023-01-18T08:53:43.962Z,33.3
2023-01-18T08:54:45.374Z,33
2023-01-18T08:55:46.781Z,33.1
2023-01-18T08:56:48.170Z,33.3
2023-01-18T08:57:49.641Z,33.3
2023-01-18T08:58:51.211Z,33.8
2023-01-18T08:59:52.620Z,33
2023-01-18T09:00:54.114Z,33.3
2023-01-18T09:01:55.839Z,33
2023-01-18T09:02:58.789Z,33.5
2023-01-18T09:04:00.481Z,33.3
2023-01-18T09:05:01.906Z,33
2023-01-18T09:06:03.337Z,33.1
2023-01-18T09:07:04.742Z,33.5
2023-01-18T09:08:06.158Z,33.3
2023-01-18T09:09:07.546Z,33.7
2023-01-18T09:10:09.076Z,33.6
2023-01-18T09:11:10.632Z,33.8
2023-01-18T09:12:12.046Z,33.2
2023-01-18T09:13:13.517Z,33.6
2023-01-18T09:14:14.915Z,33.3
2023-01-18T09:15:16.321Z,33.7
2023-01-18T09:16:17.954Z,33.7
2023-01-18T09:17:19.422Z,33.6
2023-01-18T09:18:20.835Z,33.4
2023-01-18T09:19:22.275Z,33.4
2023-01-18T09:20:23.690Z,33.2
2023-01-18T09:21:25.114Z,33.4
2023-01-18T09:22:26.506Z,34
2023-01-18T09:23:27.928Z,34
2023-01-18T09:24:29.369Z,34
2023-01-18T09:25:30.776Z,33.6
2023-01-18T09:26:32.249Z,33.6
2023-01-18T09:27:33.694Z,33.6
2023-01-18T09:28:35.162Z,33.6
2023-01-18T09:29:36.573Z,33.2
2023-01-18T09:30:38.119Z,33.5
2023-01-18T09:31:39.792Z,34.1
2023-01-18T09:32:42.727Z,33.6
2023-01-18T09:33:54.127Z,33.5
2023-01-18T09:34:55.752Z,33.3
2023-01-18T09:35:57.172Z,33.2
2023-01-18T09:36:58.587Z,33.4
2023-01-18T09:37:59.997Z,33.4
2023-01-18T09:39:01.430Z,33.2
2023-01-18T09:40:02.864Z,33.3
2023-01-18T09:41:04.266Z,33.4
2023-01-18T09:42:05.690Z,33.3
2023-01-18T09:43:07.183Z,33
2023-01-18T09:44:08.803Z,33.3
2023-01-18T09:45:10.260Z,33.6
2023-01-18T09:46:12.039Z,33.9
2023-01-18T09:47:13.525Z,33.5
2023-01-18T09:48:14.932Z,33.3
2023-01-18T09:49:16.351Z,33.3
2023-01-18T09:50:17.840Z,33.4
2023-01-18T09:51:19.269Z,33.5
2023-01-18T09:52:20.660Z,33.5
2023-01-18T09:53:22.064Z,33.7
2023-01-18T09:54:23.469Z,33.4
2023-01-18T09:55:24.930Z,33.6
2023-01-18T09:56:26.364Z,33.3
2023-01-18T09:57:27.816Z,33.8
2023-01-18T09:58:29.215Z,33.7
2023-01-18T09:59:30.701Z,33.3
2023-01-18T10:00:32.326Z,33.5
2023-01-18T10:01:34.263Z,33.6
2023-01-18T10:02:35.889Z,33.5
2023-01-18T10:03:37.304Z,33.5
2023-01-18T10:04:38.862Z,33.4
2023-01-18T10:05:40.260Z,33.1
2023-01-18T10:06:41.664Z,33.5
2023-01-18T10:07:43.068Z,33.4
2023-01-18T10:08:44.478Z,33.5
2023-01-18T10:09:45.902Z,33.4
2023-01-18T10:10:47.287Z,33.6
2023-01-18T10:11:48.702Z,33.6
2023-01-18T10:12:50.285Z,34.1
2023-01-18T10:13:51.871Z,33.6
2023-01-18T10:14:53.466Z,33.3
2023-01-18T10:15:54.929Z,33.6
2023-01-18T10:16:56.457Z,33.5
2023-01-18T10:17:57.861Z,33.2
2023-01-18T10:18:59.261Z,33.3
2023-01-18T10:20:00.700Z,33.2
2023-01-18T10:21:02.181Z,33
2023-01-18T10:22:03.593Z,33.2
2023-01-18T10:23:05.034Z,33.1
2023-01-18T10:24:06.448Z,33.2
2023-01-18T10:25:07.847Z,33.3
2023-01-18T10:26:09.335Z,33.2
2023-01-18T10:27:10.806Z,33.3
2023-01-18T10:28:12.237Z,33.4
2023-01-18T10:29:13.642Z,33
2023-01-18T10:30:15.079Z,33
2023-01-18T10:31:16.545Z,32.8
2023-01-18T10:32:17.979Z,33.2
2023-01-18T10:33:19.430Z,33.1
2023-01-18T10:34:20.851Z,33
2023-01-18T10:35:22.269Z,32.9
2023-01-18T10:36:23.678Z,33
2023-01-18T10:37:25.086Z,32.9
2023-01-18T10:38:26.498Z,33.2
2023-01-18T10:39:28.012Z,33.2
2023-01-18T10:40:29.583Z,33
2023-01-18T10:41:31.019Z,33.1
2023-01-18T10:42:32.456Z,33.1
2023-01-18T10:43:33.895Z,33
2023-01-18T10:44:35.306Z,33.4
2023-01-18T10:45:36.960Z,32.8
2023-01-18T10:46:38.390Z,33.1
2023-01-18T10:47:39.806Z,33.1
2023-01-18T10:48:41.203Z,33
2023-01-18T10:49:42.663Z,33.5
2023-01-18T10:50:44.097Z,33.2
2023-01-18T10:51:45.527Z,33
2023-01-18T10:52:46.957Z,33.5
2023-01-18T10:53:48.354Z,33
2023-01-18T10:54:49.771Z,33.5
2023-01-18T10:55:51.214Z,33.4
2023-01-18T10:56:52.653Z,33
2023-01-18T10:57:54.056Z,33.1
2023-01-18T10:58:57.749Z,32.9
2023-01-18T10:59:59.161Z,33.1
2023-01-18T11:01:01.001Z,33.1
2023-01-18T11:02:03.143Z,33.4
2023-01-18T11:03:04.755Z,33.1
2023-01-18T11:04:06.518Z,33.2
2023-01-18T11:05:07.927Z,33.1
2023-01-18T11:06:09.340Z,33
2023-01-18T11:07:10.772Z,33.3
2023-01-18T11:08:12.196Z,33
2023-01-18T11:09:13.619Z,33.2
2023-01-18T11:10:15.031Z,32.9
2023-01-18T11:11:16.428Z,32.9
2023-01-18T11:12:17.829Z,32.8
2023-01-18T11:13:19.232Z,33
2023-01-18T11:14:20.654Z,33
2023-01-18T11:15:22.078Z,33.2
2023-01-18T11:16:23.788Z,33.5
2023-01-18T11:17:25.234Z,33
2023-01-18T11:18:26.682Z,33.2
2023-01-18T11:19:28.127Z,33.2
2023-01-18T11:20:29.589Z,33
2023-01-18T11:21:31.016Z,32.7
2023-01-18T11:22:32.421Z,33
2023-01-18T11:23:33.831Z,33.2
2023-01-18T11:24:35.234Z,33.1
2023-01-18T11:25:36.636Z,33.2
2023-01-18T11:26:38.203Z,33.2
2023-01-18T11:27:39.606Z,33.4
2023-01-18T11:28:41.077Z,33.1
2023-01-18T11:29:42.568Z,33.1
2023-01-18T11:30:44.068Z,33
2023-01-18T11:31:45.919Z,33.2
2023-01-18T11:32:47.369Z,33.3
2023-01-18T11:33:48.772Z,33.2
2023-01-18T11:34:50.195Z,32.9
2023-01-18T11:35:51.589Z,33.2
2023-01-18T11:36:53.024Z,33.2
2023-01-18T11:37:54.440Z,33.4
2023-01-18T11:38:55.876Z,33.1
2023-01-18T11:39:57.347Z,33.1
2023-01-18T11:40:58.753Z,33.2
2023-01-18T11:42:00.146Z,33.4
2023-01-18T11:43:01.554Z,33
2023-01-18T11:44:02.984Z,33.1
2023-01-18T11:45:04.436Z,33.2
2023-01-18T11:46:06.048Z,33
2023-01-18T11:47:07.565Z,33.1
2023-01-18T11:48:08.965Z,33.1
2023-01-18T11:49:10.372Z,33
2023-01-18T11:50:22.740Z,33
2023-01-18T11:51:24.239Z,33
2023-01-18T11:52:25.667Z,33
2023-01-18T11:53:27.069Z,33
2023-01-18T11:54:28.494Z,33.1
2023-01-18T11:55:29.881Z,33
2023-01-18T11:56:31.305Z,33.1
2023-01-18T11:57:32.728Z,32.9
2023-01-18T11:58:34.152Z,33.1
2023-01-18T11:59:35.572Z,33.1
2023-01-18T12:00:37.019Z,33.1
2023-01-18T12:01:38.440Z,33
2023-01-18T12:02:39.900Z,33.1
2023-01-18T12:03:41.848Z,32.9
2023-01-18T12:04:43.260Z,33
2023-01-18T12:05:46.161Z,33
2023-01-18T12:06:47.547Z,32.9
2023-01-18T12:07:48.939Z,32.9
2023-01-18T12:08:50.363Z,33.1
2023-01-18T12:09:51.784Z,33.1
2023-01-18T12:10:53.186Z,32.8
2023-01-18T12:11:54.599Z,32.9
2023-01-18T12:12:56.003Z,33
2023-01-18T12:13:57.417Z,32.7
2023-01-18T12:14:58.882Z,32.6
2023-01-18T12:16:00.330Z,32.7
2023-01-18T12:17:01.757Z,32.8
2023-01-18T12:18:14.052Z,32.7
2023-01-18T12:19:15.689Z,33
2023-01-18T12:20:17.184Z,32.8
2023-01-18T12:21:18.664Z,32.8
2023-01-18T12:22:20.091Z,32.9
2023-01-18T12:23:21.518Z,32.9
2023-01-18T12:24:22.923Z,32.7
2023-01-18T12:25:24.340Z,33
2023-01-18T12:26:25.769Z,33
2023-01-18T12:27:27.173Z,32.9
2023-01-18T12:28:28.576Z,32.8
2023-01-18T12:29:29.993Z,32.9
2023-01-18T12:30:31.499Z,32.7
2023-01-18T12:31:32.943Z,32.8
2023-01-18T12:32:34.366Z,32.8
2023-01-18T12:33:44.254Z,32.8
2023-01-18T12:34:45.762Z,33.1
2023-01-18T12:35:47.214Z,32.4
2023-01-18T12:36:48.675Z,32.7
2023-01-18T12:37:50.086Z,32.5
2023-01-18T12:38:51.542Z,32.5
2023-01-18T12:39:52.974Z,32.6
2023-01-18T12:40:54.408Z,32.6
2023-01-18T12:41:55.791Z,32.6
2023-01-18T12:42:57.175Z,32.5
2023-01-18T12:43:58.567Z,32.5
2023-01-18T12:45:00.022Z,32.7
2023-01-18T12:46:01.497Z,32.6
2023-01-18T12:47:02.919Z,32.8
2023-01-18T12:48:04.328Z,32.4
2023-01-18T12:49:05.812Z,32.3
2023-01-18T12:50:07.248Z,32.6
2023-01-18T12:51:08.649Z,32.5
2023-01-18T12:52:19.616Z,32.4
2023-01-18T12:53:21.201Z,32.4
2023-01-18T12:54:22.615Z,32.7
2023-01-18T12:55:24.016Z,32.8
2023-01-18T12:56:25.420Z,32.8
2023-01-18T12:57:26.831Z,32.7
2023-01-18T12:58:28.236Z,32.6
2023-01-18T12:59:29.634Z,32.5
2023-01-18T13:00:31.055Z,32.8
2023-01-18T13:01:32.687Z,32.9
2023-01-18T13:02:34.299Z,32.8
2023-01-18T13:03:35.830Z,32.6
2023-01-18T13:04:37.284Z,32.5
2023-01-18T13:05:38.719Z,32.6
2023-01-18T13:06:40.111Z,32.8
2023-01-18T13:07:41.545Z,32.9
2023-01-18T13:08:45.012Z,32.4
2023-01-18T13:09:46.463Z,32.7
2023-01-18T13:10:47.861Z,32.9
2023-01-18T13:11:49.269Z,33.1
2023-01-18T13:12:50.703Z,32.5
2023-01-18T13:13:52.182Z,32.8
2023-01-18T13:14:53.607Z,32.9
2023-01-18T13:15:55.191Z,32.6
2023-01-18T13:16:56.601Z,32.8
2023-01-18T13:17:58.872Z,32.5
2023-01-18T13:19:00.405Z,32.6
2023-01-18T13:20:01.870Z,32.8
2023-01-18T13:21:03.282Z,32.6
2023-01-18T13:22:04.678Z,32.6
2023-01-18T13:23:06.058Z,32.5
2023-01-18T13:24:07.474Z,32.4
2023-01-18T13:25:08.952Z,32.7
2023-01-18T13:26:10.483Z,32.6
2023-01-18T13:27:11.890Z,32.6
2023-01-18T13:28:13.294Z,32.5
2023-01-18T13:29:14.708Z,32.7
2023-01-18T13:30:16.126Z,32.8
2023-01-18T13:31:17.644Z,33
2023-01-18T13:32:19.138Z,32.5
2023-01-18T13:33:20.539Z,32.3
2023-01-18T13:34:21.962Z,32.5
2023-01-18T13:35:26.099Z,32.4
2023-01-18T13:36:27.758Z,32.7
2023-01-18T13:37:29.421Z,32.6
2023-01-18T13:38:42.103Z,32.6
2023-01-18T13:39:43.652Z,32.5
2023-01-18T13:40:45.064Z,32.5
2023-01-18T13:41:46.497Z,32.7
2023-01-18T13:42:47.910Z,32.3
2023-01-18T13:43:49.326Z,32.5
2023-01-18T13:44:50.752Z,32.4
2023-01-18T13:45:52.199Z,32.5